createdAt,value
2023-03-08T00:00:21.084Z,3.18
2023-03-08T00:02:47.954Z,3.15
2023-03-08T00:05:14.663Z,3.09
2023-03-08T00:07:41.757Z,2.99
2023-03-08T00:10:09.581Z,3.01
2023-03-08T00:12:36.546Z,3.09
2023-03-08T00:15:03.241Z,3.09
2023-03-08T00:17:29.747Z,3.06
2023-03-08T00:19:56.224Z,3.13
2023-03-08T00:22:24.105Z,3.16
2023-03-08T00:24:53.803Z,3.24
2023-03-08T00:27:20.235Z,3.24
2023-03-08T00:29:46.977Z,3.24
2023-03-08T00:32:13.523Z,3.25
2023-03-08T00:34:40.126Z,3.26
2023-03-08T00:37:06.572Z,3.27
2023-03-08T00:39:33.365Z,3.31
2023-03-08T00:41:59.721Z,3.29
2023-03-08T00:44:26.355Z,3.30
2023-03-08T00:46:52.790Z,3.30
2023-03-08T00:49:19.283Z,3.25
2023-03-08T00:51:47.048Z,3.25
2023-03-08T00:54:13.639Z,3.30
2023-03-08T00:56:40.301Z,3.23
2023-03-08T00:59:06.981Z,3.27
2023-03-08T01:01:34.762Z,3.17
2023-03-08T01:04:02.365Z,3.06
2023-03-08T01:06:29.861Z,3.03
2023-03-08T01:08:56.339Z,3.07
2023-03-08T01:11:25.555Z,2.99
2023-03-08T01:13:53.668Z,2.94
2023-03-08T01:16:23.246Z,2.86
2023-03-08T01:18:50.045Z,2.85
2023-03-08T01:21:18.710Z,2.97
2023-03-08T01:23:47.052Z,2.95
2023-03-08T01:26:21.842Z,2.90
2023-03-08T01:28:49.158Z,2.88
2023-03-08T01:31:17.960Z,2.93
2023-03-08T01:33:45.155Z,2.86
2023-03-08T01:36:14.649Z,2.91
2023-03-08T01:38:41.837Z,2.78
2023-03-08T01:41:13.929Z,2.70
2023-03-08T01:43:40.410Z,2.59
2023-03-08T01:46:28.161Z,2.56
2023-03-08T01:48:56.552Z,2.53
2023-03-08T01:51:34.012Z,2.49
2023-03-08T01:54:06.820Z,2.58
2023-03-08T01:56:35.675Z,2.38
2023-03-08T01:59:03.066Z,2.29
2023-03-08T02:01:29.872Z,2.16
2023-03-08T02:03:56.587Z,2.18
2023-03-08T02:06:23.231Z,2.05
2023-03-08T02:08:51.306Z,2.00
2023-03-08T02:11:20.039Z,2.04
2023-03-08T02:13:47.372Z,1.92
2023-03-08T02:16:16.390Z,1.84
2023-03-08T02:18:57.957Z,1.74
2023-03-08T02:21:25.322Z,1.76
2023-03-08T02:23:52.114Z,1.96
2023-03-08T02:26:19.119Z,1.96
2023-03-08T02:28:46.191Z,1.84
2023-03-08T02:31:14.326Z,1.79
2023-03-08T02:33:41.375Z,1.82
2023-03-08T02:36:08.835Z,1.96
2023-03-08T02:38:35.695Z,2.00
2023-03-08T02:41:02.147Z,2.00
2023-03-08T02:43:31.908Z,2.04
2023-03-08T02:45:58.653Z,2.01
2023-03-08T02:48:25.441Z,2.06
2023-03-08T02:50:52.096Z,1.95
2023-03-08T02:53:18.514Z,1.97
2023-03-08T02:55:44.999Z,1.96
2023-03-08T02:58:11.971Z,1.89
2023-03-08T03:00:38.792Z,1.83
2023-03-08T03:03:06.436Z,1.83
2023-03-08T03:05:33.049Z,1.86
2023-03-08T03:08:00.592Z,1.90
2023-03-08T03:10:27.907Z,1.96
2023-03-08T03:12:54.296Z,1.97
2023-03-08T03:15:20.891Z,2.10
2023-03-08T03:17:47.256Z,2.15
2023-03-08T03:20:15.286Z,2.17
2023-03-08T03:22:41.744Z,2.20
2023-03-08T03:25:08.960Z,2.14
2023-03-08T03:27:35.832Z,2.08
2023-03-08T03:30:02.715Z,2.07
2023-03-08T03:32:29.350Z,2.01
2023-03-08T03:34:55.733Z,2.02
2023-03-08T03:37:25.835Z,2.03
2023-03-08T03:39:52.217Z,2.05
2023-03-08T03:42:19.300Z,2.05
2023-03-08T03:44:46.082Z,2.05
2023-03-08T03:47:12.589Z,2.05
2023-03-08T03:49:39.166Z,2.02
2023-03-08T03:52:06.568Z,1.99
2023-03-08T03:54:33.269Z,2.01
2023-03-08T03:56:59.678Z,2.00
2023-03-08T03:59:29.091Z,2.00
2023-03-08T04:01:55.514Z,2.06
2023-03-08T04:04:22.503Z,2.09
2023-03-08T04:06:49.079Z,2.10
2023-03-08T04:09:17.394Z,2.08
2023-03-08T04:11:44.150Z,2.06
2023-03-08T04:14:10.616Z,2.03
2023-03-08T04:16:39.251Z,1.98
2023-03-08T04:19:09.959Z,1.96
2023-03-08T04:21:36.641Z,2.05
2023-03-08T04:24:04.688Z,2.08
2023-03-08T04:26:32.010Z,2.02
2023-03-08T04:28:58.431Z,1.97
2023-03-08T04:31:28.108Z,1.95
2023-03-08T04:33:58.273Z,1.93
2023-03-08T04:36:25.505Z,1.87
2023-03-08T04:38:52.211Z,1.90
2023-03-08T04:41:19.839Z,2.01
2023-03-08T04:43:48.105Z,2.04
2023-03-08T04:46:16.024Z,2.06
2023-03-08T04:48:43.056Z,1.99
2023-03-08T04:51:12.952Z,1.93
2023-03-08T04:53:39.619Z,1.95
2023-03-08T04:56:06.609Z,1.93
2023-03-08T04:58:33.194Z,1.90
2023-03-08T05:00:59.658Z,1.93
2023-03-08T05:03:26.334Z,1.94
2023-03-08T05:05:55.902Z,1.98
2023-03-08T05:08:23.695Z,1.89
2023-03-08T05:10:55.372Z,1.89
2023-03-08T05:13:21.872Z,1.87
2023-03-08T05:15:48.273Z,1.97
2023-03-08T05:18:14.840Z,2.04
2023-03-08T05:20:41.531Z,2.13
2023-03-08T05:23:10.867Z,2.04
2023-03-08T05:25:44.783Z,1.95
2023-03-08T05:28:11.375Z,1.99
2023-03-08T05:30:37.921Z,1.96
2023-03-08T05:33:04.678Z,1.90
2023-03-08T05:35:31.158Z,1.85
2023-03-08T05:37:57.717Z,1.79
2023-03-08T05:40:24.542Z,1.77
2023-03-08T05:42:51.170Z,1.74
2023-03-08T05:45:18.467Z,1.71
2023-03-08T05:47:44.840Z,1.75
2023-03-08T05:50:12.024Z,1.81
2023-03-08T05:52:40.953Z,1.83
2023-03-08T05:55:07.933Z,1.91
2023-03-08T05:57:34.386Z,1.94
2023-03-08T06:00:00.723Z,1.97
2023-03-08T06:02:28.996Z,2.02
2023-03-08T06:04:55.389Z,2.03
2023-03-08T06:07:21.790Z,2.02
2023-03-08T06:09:48.261Z,1.98
2023-03-08T06:12:14.647Z,2.06
2023-03-08T06:14:41.173Z,2.09
2023-03-08T06:17:07.646Z,2.13
2023-03-08T06:19:37.081Z,2.16
2023-03-08T06:22:03.581Z,2.20
2023-03-08T06:24:31.263Z,2.22
2023-03-08T06:26:57.741Z,2.27
2023-03-08T06:29:24.238Z,2.30
2023-03-08T06:31:50.707Z,2.34
2023-03-08T06:34:18.848Z,2.34
2023-03-08T06:36:45.381Z,2.39
2023-03-08T06:39:11.770Z,2.45
2023-03-08T06:41:38.466Z,2.47
2023-03-08T06:44:10.180Z,2.52
2023-03-08T06:46:36.627Z,2.57
2023-03-08T06:49:03.323Z,2.64
2023-03-08T06:51:29.757Z,2.64
2023-03-08T06:53:56.236Z,2.71
2023-03-08T06:56:22.611Z,2.78
2023-03-08T06:58:49.129Z,2.85
2023-03-08T07:01:15.812Z,2.91
2023-03-08T07:03:42.384Z,2.99
2023-03-08T07:06:09.952Z,3.07
2023-03-08T07:08:37.536Z,3.09
2023-03-08T07:11:04.730Z,3.17
2023-03-08T07:13:31.232Z,3.26
2023-03-08T07:15:57.872Z,3.36
2023-03-08T07:18:25.112Z,3.28
2023-03-08T07:21:00.584Z,3.30
2023-03-08T07:23:27.330Z,3.32
2023-03-08T07:25:53.916Z,3.28
2023-03-08T07:31:02.272Z,3.40
2023-03-08T07:33:28.696Z,3.43
2023-03-08T07:35:55.159Z,3.41
2023-03-08T07:38:21.980Z,3.48
2023-03-08T07:40:54.659Z,3.65
2023-03-08T07:43:21.525Z,3.70
2023-03-08T07:45:48.044Z,3.78
2023-03-08T07:48:14.901Z,3.92
2023-03-08T07:50:41.459Z,3.98
2023-03-08T07:53:09.395Z,4.00
2023-03-08T07:55:37.337Z,4.00
2023-03-08T07:58:03.875Z,3.97
2023-03-08T08:00:30.674Z,3.96
2023-03-08T08:02:57.104Z,3.97
2023-03-08T08:05:24.243Z,3.86
2023-03-08T08:07:50.966Z,3.81
2023-03-08T08:10:17.599Z,3.86
2023-03-08T08:12:44.091Z,3.94
2023-03-08T08:15:11.151Z,3.97
2023-03-08T08:17:37.598Z,4.01
2023-03-08T08:20:04.430Z,4.07
2023-03-08T08:22:30.869Z,4.11
2023-03-08T08:24:57.338Z,4.21
2023-03-08T08:27:24.420Z,4.38
2023-03-08T08:29:52.516Z,4.44
2023-03-08T08:32:20.589Z,4.53
2023-03-08T08:34:47.174Z,4.69
2023-03-08T08:37:13.728Z,4.73
2023-03-08T08:39:40.236Z,4.89
2023-03-08T08:42:07.139Z,4.86
2023-03-08T08:44:34.200Z,5.00
2023-03-08T08:47:01.883Z,4.81
2023-03-08T08:49:28.497Z,5.04
2023-03-08T08:51:54.886Z,5.15
2023-03-08T08:54:22.885Z,5.03
2023-03-08T08:56:49.356Z,4.97
2023-03-08T08:59:15.718Z,5.06
2023-03-08T09:01:42.183Z,5.27
2023-03-08T09:04:09.217Z,5.12
2023-03-08T09:06:35.840Z,5.24
2023-03-08T09:09:02.385Z,5.15
2023-03-08T09:11:28.970Z,5.21
2023-03-08T09:13:56.077Z,5.27
2023-03-08T09:16:29.519Z,5.61
2023-03-08T09:18:57.620Z,5.80
2023-03-08T09:21:26.189Z,5.61
2023-03-08T09:23:52.797Z,5.35
2023-03-08T09:26:19.409Z,5.32
2023-03-08T09:28:46.519Z,5.30
2023-03-08T09:31:16.274Z,5.32
2023-03-08T09:33:45.900Z,5.47
2023-03-08T09:36:12.968Z,5.36
2023-03-08T09:38:39.870Z,5.40
2023-03-08T09:41:17.620Z,5.30
2023-03-08T09:43:51.989Z,5.40
2023-03-08T09:46:27.382Z,5.44
2023-03-08T09:48:55.914Z,5.56
2023-03-08T09:51:27.038Z,5.52
2023-03-08T09:54:02.555Z,5.66
2023-03-08T09:56:41.385Z,5.69
2023-03-08T09:59:17.441Z,5.74
2023-03-08T10:01:54.158Z,5.83
2023-03-08T10:04:27.356Z,5.95
2023-03-08T10:07:20.207Z,6.05
2023-03-08T10:10:02.381Z,6.16
2023-03-08T10:12:43.728Z,6.29
2023-03-08T10:15:19.808Z,6.43
2023-03-08T10:17:58.003Z,6.34
2023-03-08T10:20:28.154Z,6.40
2023-03-08T10:22:59.466Z,6.54
2023-03-08T10:25:34.398Z,6.55
2023-03-08T10:28:03.404Z,6.66
2023-03-08T10:30:36.242Z,6.65
2023-03-08T10:33:08.615Z,6.58
2023-03-08T10:35:52.638Z,6.68
2023-03-08T10:38:19.328Z,6.85
2023-03-08T10:40:46.771Z,6.91
2023-03-08T10:43:40.448Z,7.08
2023-03-08T10:46:18.735Z,7.08
2023-03-08T10:48:51.594Z,7.14
2023-03-08T10:51:28.829Z,7.39
2023-03-08T10:54:00.620Z,7.53
2023-03-08T10:56:40.438Z,7.62
2023-03-08T10:59:17.949Z,7.78
2023-03-08T11:01:54.823Z,7.77
2023-03-08T11:04:27.585Z,7.78
2023-03-08T11:06:54.560Z,8.10
2023-03-08T11:09:27.066Z,8.19
2023-03-08T11:11:55.639Z,7.93
2023-03-08T11:14:26.127Z,7.80
2023-03-08T11:17:01.083Z,7.90
2023-03-08T11:19:34.872Z,7.97
2023-03-08T11:22:21.473Z,8.05
2023-03-08T11:25:02.190Z,8.03
2023-03-08T11:28:05.525Z,8.09
2023-03-08T11:33:59.049Z,8.26
2023-03-08T11:36:50.884Z,8.67
2023-03-08T11:39:26.891Z,8.74
2023-03-08T11:42:03.889Z,8.87
2023-03-08T11:45:07.465Z,9.18
2023-03-08T11:47:56.589Z,9.48
2023-03-08T11:50:37.673Z,9.80
2023-03-08T11:53:33.549Z,9.97
2023-03-08T11:56:35.253Z,10.24
2023-03-08T11:59:01.950Z,10.23
2023-03-08T12:02:09.401Z,10.36
2023-03-08T12:04:58.005Z,10.55
2023-03-08T12:07:34.002Z,10.61
2023-03-08T12:10:12.888Z,10.72
2023-03-08T12:12:49.731Z,10.72
2023-03-08T12:15:33.906Z,10.74
2023-03-08T12:18:15.922Z,10.82
2023-03-08T12:20:45.393Z,10.84
2023-03-08T12:24:03.808Z,10.89
2023-03-08T12:26:39.954Z,10.94
2023-03-08T12:29:28.016Z,11.02
2023-03-08T12:31:54.663Z,10.98
2023-03-08T12:34:36.497Z,11.02
2023-03-08T12:37:04.343Z,11.06
2023-03-08T12:39:36.773Z,11.07
2023-03-08T12:42:12.069Z,11.16
2023-03-08T12:44:39.627Z,11.27
2023-03-08T12:47:15.093Z,11.30
2023-03-08T12:49:49.901Z,11.40
2023-03-08T12:52:19.435Z,11.55
2023-03-08T12:54:57.414Z,11.66
2023-03-08T12:57:32.802Z,11.80
2023-03-08T13:00:08.515Z,11.83
2023-03-08T13:02:35.753Z,11.96
2023-03-08T13:05:36.612Z,12.18
2023-03-08T13:08:15.495Z,12.25
2023-03-08T13:10:59.243Z,12.41
2023-03-08T13:13:46.968Z,12.41
2023-03-08T13:16:29.993Z,12.50
2023-03-08T13:19:17.359Z,12.46
2023-03-08T13:22:11.295Z,12.16
2023-03-08T13:24:47.533Z,12.07
2023-03-08T13:27:26.769Z,12.09
2023-03-08T13:29:53.588Z,12.00
2023-03-08T13:32:24.045Z,11.95
2023-03-08T13:35:02.313Z,11.85
2023-03-08T13:37:30.317Z,11.78
2023-03-08T13:39:59.671Z,11.77
2023-03-08T13:42:28.819Z,11.72
2023-03-08T13:45:10.720Z,11.72
2023-03-08T13:47:38.855Z,11.66
2023-03-08T13:50:18.108Z,11.71
2023-03-08T13:52:45.015Z,11.76
2023-03-08T13:55:21.404Z,11.72
2023-03-08T13:57:51.219Z,11.74
2023-03-08T14:00:28.920Z,11.73
2023-03-08T14:02:56.326Z,11.86
2023-03-08T14:05:27.554Z,11.87
2023-03-08T14:07:59.010Z,11.91
2023-03-08T14:10:32.422Z,11.95
2023-03-08T14:12:59.250Z,12.04
2023-03-08T14:15:26.009Z,12.11
2023-03-08T14:17:53.282Z,12.15
2023-03-08T14:20:22.432Z,12.13
2023-03-08T14:22:52.546Z,12.06
2023-03-08T14:25:28.212Z,12.06
2023-03-08T14:27:55.432Z,12.05
2023-03-08T14:30:28.322Z,12.04
2023-03-08T14:33:15.962Z,12.05
2023-03-08T14:35:51.735Z,12.12
2023-03-08T14:38:24.247Z,12.10
2023-03-08T14:40:51.423Z,12.09
2023-03-08T14:43:21.744Z,12.08
2023-03-08T14:46:06.131Z,12.11
2023-03-08T14:48:35.380Z,12.20
2023-03-08T14:51:17.183Z,12.24
2023-03-08T14:53:43.712Z,12.20
2023-03-08T14:56:17.249Z,12.17
2023-03-08T14:58:49.668Z,12.24
2023-03-08T15:01:32.143Z,12.25
2023-03-08T15:03:59.484Z,12.39
2023-03-08T15:06:32.562Z,12.40
2023-03-08T15:09:05.514Z,12.41
2023-03-08T15:11:32.161Z,12.25
2023-03-08T15:14:04.300Z,12.24
2023-03-08T15:16:33.187Z,12.24
2023-03-08T15:18:59.761Z,12.34
2023-03-08T15:21:30.924Z,12.34
2023-03-08T15:23:58.985Z,12.31
2023-03-08T15:26:29.038Z,12.24
2023-03-08T15:28:55.681Z,12.22
2023-03-08T15:31:22.199Z,12.18
2023-03-08T15:33:49.929Z,12.17
2023-03-08T15:36:19.013Z,12.24
2023-03-08T15:38:46.996Z,12.20
2023-03-08T15:41:15.236Z,12.25
2023-03-08T15:43:41.974Z,12.31
2023-03-08T15:46:13.305Z,12.26
2023-03-08T15:48:42.019Z,12.23
2023-03-08T15:51:19.337Z,12.24
2023-03-08T15:53:46.417Z,12.20
2023-03-08T15:56:13.055Z,12.22
2023-03-08T15:58:40.128Z,12.16
2023-03-08T16:01:07.776Z,12.16
2023-03-08T16:03:36.588Z,12.18
2023-03-08T16:06:03.595Z,12.11
2023-03-08T16:08:30.209Z,12.08
2023-03-08T16:10:56.706Z,12.08
2023-03-08T16:13:23.164Z,12.15
2023-03-08T16:15:49.961Z,12.14
2023-03-08T16:18:16.629Z,12.07
2023-03-08T16:20:43.274Z,12.14
2023-03-08T16:23:10.016Z,12.13
2023-03-08T16:25:36.486Z,12.04
2023-03-08T16:28:03.011Z,11.90
2023-03-08T16:30:29.552Z,11.92
2023-03-08T16:32:57.133Z,11.86
2023-03-08T16:35:23.634Z,11.72
2023-03-08T16:37:52.952Z,11.70
2023-03-08T16:40:19.512Z,11.70
2023-03-08T16:42:47.289Z,11.58
2023-03-08T16:45:15.802Z,11.68
2023-03-08T16:47:43.944Z,11.68
2023-03-08T16:50:12.868Z,11.65
2023-03-08T16:52:39.675Z,11.69
2023-03-08T16:55:06.866Z,11.56
2023-03-08T16:57:33.311Z,11.38
2023-03-08T17:00:00.024Z,11.21
2023-03-08T17:02:26.482Z,11.09
2023-03-08T17:04:53.548Z,11.03
2023-03-08T17:07:19.914Z,10.88
2023-03-08T17:09:46.506Z,10.78
2023-03-08T17:12:14.173Z,10.73
2023-03-08T17:14:40.574Z,10.67
2023-03-08T17:17:07.306Z,10.68
2023-03-08T17:19:35.471Z,10.62
2023-03-08T17:22:02.174Z,10.60
2023-03-08T17:24:28.709Z,10.58
2023-03-08T17:26:55.229Z,10.53
2023-03-08T17:29:22.100Z,10.49
2023-03-08T17:31:48.934Z,10.43
2023-03-08T17:34:17.572Z,10.38
2023-03-08T17:36:44.148Z,10.43
2023-03-08T17:39:10.742Z,10.35
2023-03-08T17:41:38.652Z,10.32
2023-03-08T17:44:06.026Z,10.37
2023-03-08T17:46:32.775Z,10.34
2023-03-08T17:48:59.332Z,10.29
2023-03-08T17:51:28.635Z,10.26
2023-03-08T17:53:55.538Z,10.30
2023-03-08T17:56:25.059Z,10.34
2023-03-08T17:58:51.897Z,10.27
2023-03-08T18:01:26.583Z,10.22
2023-03-08T18:03:55.709Z,10.22
2023-03-08T18:06:40.036Z,10.26
2023-03-08T18:09:09.914Z,10.21
2023-03-08T18:11:36.565Z,10.26
2023-03-08T18:14:13.472Z,10.23
2023-03-08T18:16:41.134Z,10.28
2023-03-08T18:19:07.629Z,10.29
2023-03-08T18:21:36.023Z,10.32
2023-03-08T18:24:03.527Z,10.31
2023-03-08T18:26:29.924Z,10.30
2023-03-08T18:28:56.555Z,10.32
2023-03-08T18:31:25.064Z,10.30
2023-03-08T18:33:54.595Z,10.23
2023-03-08T18:36:21.480Z,10.21
2023-03-08T18:38:48.439Z,10.12
2023-03-08T18:41:23.288Z,10.11
2023-03-08T18:43:50.239Z,10.08
2023-03-08T18:46:17.545Z,10.21
2023-03-08T18:48:44.487Z,10.17
2023-03-08T18:51:11.302Z,10.16
2023-03-08T18:53:38.054Z,10.11
2023-03-08T18:56:05.218Z,10.06
2023-03-08T18:58:31.974Z,10.09
2023-03-08T19:00:58.625Z,9.99
2023-03-08T19:03:29.455Z,9.97
2023-03-08T19:05:56.440Z,9.89
2023-03-08T19:08:23.452Z,9.81
2023-03-08T19:10:49.992Z,9.84
2023-03-08T19:13:17.900Z,9.90
2023-03-08T19:15:44.418Z,9.84
2023-03-08T19:18:11.042Z,9.81
2023-03-08T19:20:40.197Z,9.78
2023-03-08T19:23:07.314Z,9.79
2023-03-08T19:25:46.090Z,9.75
2023-03-08T19:28:14.220Z,9.85
2023-03-08T19:30:53.587Z,9.86
2023-03-08T19:33:30.391Z,9.85
2023-03-08T19:35:58.274Z,9.74
2023-03-08T19:38:27.790Z,9.63
2023-03-08T19:40:54.522Z,9.55
2023-03-08T19:43:21.800Z,9.45
2023-03-08T19:45:50.937Z,9.38
2023-03-08T19:48:18.261Z,9.29
2023-03-08T19:50:45.962Z,9.28
2023-03-08T19:53:12.521Z,9.29
2023-03-08T19:55:48.284Z,9.32
2023-03-08T19:58:14.979Z,9.27
2023-03-08T20:00:41.724Z,9.28
2023-03-08T20:03:08.282Z,9.34
2023-03-08T20:05:40.729Z,9.29
2023-03-08T20:08:08.143Z,9.27
2023-03-08T20:10:35.508Z,9.20
2023-03-08T20:13:02.414Z,9.17
2023-03-08T20:15:29.391Z,9.27
2023-03-08T20:17:56.245Z,9.20
2023-03-08T20:20:22.977Z,9.13
2023-03-08T20:22:49.462Z,9.11
2023-03-08T20:25:16.202Z,9.12
2023-03-08T20:27:43.356Z,9.12
2023-03-08T20:30:11.783Z,9.15
2023-03-08T20:32:38.594Z,9.20
2023-03-08T20:35:06.325Z,9.20
2023-03-08T20:37:33.114Z,9.14
2023-03-08T20:39:59.933Z,9.13
2023-03-08T20:42:27.024Z,9.17
2023-03-08T20:44:53.707Z,9.19
2023-03-08T20:47:20.873Z,9.14
2023-03-08T20:49:47.381Z,9.13
2023-03-08T20:52:14.123Z,9.15
2023-03-08T20:54:40.688Z,9.15
2023-03-08T20:57:07.034Z,9.13
2023-03-08T20:59:33.511Z,9.11
2023-03-08T21:01:59.928Z,9.10
2023-03-08T21:04:26.664Z,9.08
2023-03-08T21:06:53.101Z,9.08
2023-03-08T21:09:19.568Z,9.09
2023-03-08T21:11:46.068Z,9.05
2023-03-08T21:14:12.841Z,9.02
2023-03-08T21:16:39.611Z,8.98
2023-03-08T21:19:06.667Z,9.08
2023-03-08T21:21:36.307Z,9.10
2023-03-08T21:24:12.473Z,9.09
2023-03-08T21:26:39.051Z,9.00
2023-03-08T21:29:08.853Z,8.94
2023-03-08T21:31:39.205Z,8.87
2023-03-08T21:34:06.712Z,8.88
2023-03-08T21:36:34.284Z,8.86
2023-03-08T21:39:00.812Z,8.86
2023-03-08T21:41:34.556Z,8.89
2023-03-08T21:44:05.323Z,9.02
2023-03-08T21:46:32.342Z,9.11
2023-03-08T21:48:58.979Z,9.17
2023-03-08T21:51:25.532Z,9.18
2023-03-08T21:53:53.366Z,9.23
2023-03-08T21:56:20.234Z,9.23
2023-03-08T21:58:46.687Z,9.24
2023-03-08T22:01:43.380Z,9.25
2023-03-08T22:04:09.979Z,9.26
2023-03-08T22:06:36.439Z,9.26
2023-03-08T22:09:05.039Z,9.25
2023-03-08T22:11:31.817Z,9.24
2023-03-08T22:14:00.026Z,9.24
2023-03-08T22:16:28.688Z,9.24
2023-03-08T22:18:57.933Z,9.33
2023-03-08T22:21:24.720Z,9.29
2023-03-08T22:23:57.200Z,9.37
2023-03-08T22:26:24.984Z,9.37
2023-03-08T22:28:53.237Z,9.28
2023-03-08T22:31:24.477Z,9.31
2023-03-08T22:33:52.562Z,9.31
2023-03-08T22:36:20.009Z,9.27
2023-03-08T22:38:46.701Z,9.17
2023-03-08T22:41:22.419Z,9.06
2023-03-08T22:43:49.687Z,9.02
2023-03-08T22:46:22.099Z,8.97
2023-03-08T22:48:50.702Z,8.93
2023-03-08T22:51:19.584Z,8.92
2023-03-08T22:53:46.115Z,8.90
2023-03-08T22:56:25.662Z,8.84
2023-03-08T22:58:52.525Z,8.84
2023-03-08T23:01:21.583Z,8.82
2023-03-08T23:03:48.811Z,8.81
2023-03-08T23:06:18.854Z,8.79
2023-03-08T23:08:46.455Z,8.73
2023-03-08T23:11:14.069Z,8.73
2023-03-08T23:13:40.700Z,8.71
2023-03-08T23:16:08.762Z,8.69
2023-03-08T23:18:35.684Z,8.69
2023-03-08T23:21:07.341Z,8.65
2023-03-08T23:23:36.368Z,8.62
2023-03-08T23:26:05.502Z,8.63
2023-03-08T23:28:33.076Z,8.71
2023-03-08T23:31:02.072Z,8.69
2023-03-08T23:33:28.848Z,8.64
2023-03-08T23:35:55.899Z,8.65
2023-03-08T23:38:22.592Z,8.62
2023-03-08T23:40:49.022Z,8.60
2023-03-08T23:43:15.426Z,8.60
2023-03-08T23:45:41.877Z,8.61
2023-03-08T23:48:08.265Z,8.63
2023-03-08T23:50:34.718Z,8.59
2023-03-08T23:53:01.119Z,8.61
2023-03-08T23:55:27.517Z,8.60
2023-03-08T23:57:54.175Z,8.65
